Time;durP1;ratioP1;P1;durP2;ratioP2;P2;SDS_P1;SDS_P2;PMS_P1;PMS_P2;Temp;Humidity;BMP_temperature;BMP_pressure;BME280_temperature;BME280_humidity;BME280_pressure;Samples;Min_cycle;Max_cycle;Signal;HPM_P1;HPM_P2
2023/06/28 00:00:12;;;;;;;3.90;2.40;;;;;;;;;;5016561;28;20189;-73
2023/06/28 00:03:22;;;;;;;4.40;2.70;;;;;;;;;;5016495;28;20181;-73
2023/06/28 00:06:26;;;;;;;4.77;2.00;;;;;;;;;;5016899;28;20193;-73
2023/06/28 00:09:31;;;;;;;4.40;2.20;;;;;;;;;;5016931;28;20182;-72
2023/06/28 00:12:35;;;;;;;7.10;2.93;;;;;;;;;;5015970;28;20568;-73
2023/06/28 00:15:39;;;;;;;2.70;2.40;;;;;;;;;;5016915;28;20201;-73
2023/06/28 00:18:43;;;;;;;3.90;2.70;;;;;;;;;;5017006;28;20628;-73
2023/06/28 00:21:49;;;;;;;4.17;2.60;;;;;;;;;;5016546;28;20221;-73
2023/06/28 00:24:53;;;;;;;4.93;2.83;;;;;;;;;;5016341;28;20529;-73
2023/06/28 00:27:57;;;;;;;4.30;2.67;;;;;;;;;;5016032;28;20178;-73
2023/06/28 00:31:01;;;;;;;5.50;2.70;;;;;;;;;;5015723;28;20189;-73
2023/06/28 00:34:06;;;;;;;4.13;2.50;;;;;;;;;;5004723;28;20174;-73
2023/06/28 00:37:10;;;;;;;4.27;2.40;;;;;;;;;;5016593;28;20205;-73
2023/06/28 00:40:14;;;;;;;5.17;2.70;;;;;;;;;;5016339;28;20182;-73
2023/06/28 00:43:19;;;;;;;6.87;3.30;;;;;;;;;;5016504;28;20182;-73
2023/06/28 00:46:23;;;;;;;5.80;3.43;;;;;;;;;;5016182;28;20624;-73
2023/06/28 00:49:34;;;;;;;5.40;3.13;;;;;;;;;;5003740;28;20174;-73
2023/06/28 00:52:38;;;;;;;5.63;2.93;;;;;;;;;;5016008;28;20565;-73
2023/06/28 00:55:42;;;;;;;9.03;3.53;;;;;;;;;;5004246;28;20198;-73
2023/06/28 00:58:47;;;;;;;5.30;3.43;;;;;;;;;;5015711;28;20170;-73
2023/06/28 01:01:52;;;;;;;8.17;3.53;;;;;;;;;;5015499;28;20229;-72
2023/06/28 01:04:58;;;;;;;8.20;3.67;;;;;;;;;;5004097;28;20629;-73
2023/06/28 01:08:04;;;;;;;5.97;3.43;;;;;;;;;;5016371;28;20636;-73
2023/06/28 01:11:10;;;;;;;7.57;3.93;;;;;;;;;;5015151;28;20181;-72
2023/06/28 01:14:15;;;;;;;4.77;3.17;;;;;;;;;;5015167;28;20526;-72
2023/06/28 01:17:19;;;;;;;5.40;3.10;;;;;;;;;;5014733;28;20217;-73
2023/06/28 01:20:23;;;;;;;4.40;3.40;;;;;;;;;;5004057;28;20644;-73
2023/06/28 01:23:29;;;;;;;5.97;3.43;;;;;;;;;;5014975;28;20185;-73
2023/06/28 01:26:37;;;;;;;5.93;3.47;;;;;;;;;;5004047;28;20193;-73
2023/06/28 01:29:42;;;;;;;4.57;3.23;;;;;;;;;;5003409;28;20545;-73
2023/06/28 01:32:46;;;;;;;4.20;3.20;;;;;;;;;;5014753;28;20680;-73
2023/06/28 01:35:50;;;;;;;5.03;3.07;;;;;;;;;;5015238;28;20193;-73
2023/06/28 01:38:55;;;;;;;4.13;2.83;;;;;;;;;;5014717;28;20517;-73
2023/06/28 01:42:00;;;;;;;3.50;3.10;;;;;;;;;;5014515;28;20221;-73
2023/06/28 01:45:05;;;;;;;5.13;2.60;;;;;;;;;;5014296;28;20549;-73
2023/06/28 01:48:09;;;;;;;6.53;3.00;;;;;;;;;;5014725;28;20197;-73
2023/06/28 01:51:14;;;;;;;3.60;2.77;;;;;;;;;;5014281;28;20221;-73
2023/06/28 01:54:19;;;;;;;5.20;3.40;;;;;;;;;;5014940;28;20533;-73
2023/06/28 01:57:23;;;;;;;4.53;3.33;;;;;;;;;;5014483;28;20217;-73
2023/06/28 02:00:27;;;;;;;5.80;2.67;;;;;;;;;;5014271;28;20541;-73
2023/06/28 02:03:31;;;;;;;5.90;3.10;;;;;;;;;;5014204;28;20182;-73
2023/06/28 02:06:38;;;;;;;5.43;3.10;;;;;;;;;;5014244;28;20185;-73
2023/06/28 02:09:43;;;;;;;5.40;2.90;;;;;;;;;;5002986;28;20656;-73
2023/06/28 02:12:47;;;;;;;4.57;2.70;;;;;;;;;;5013997;28;20687;-72
2023/06/28 02:15:51;;;;;;;3.63;2.80;;;;;;;;;;5014744;28;20201;-72
2023/06/28 02:18:57;;;;;;;4.30;3.00;;;;;;;;;;5029346;22;20233;-75
2023/06/28 02:22:01;;;;;;;6.83;2.80;;;;;;;;;;5014156;28;20221;-75
2023/06/28 02:25:06;;;;;;;6.33;3.40;;;;;;;;;;5002949;28;20663;-75
2023/06/28 02:28:10;;;;;;;3.83;2.87;;;;;;;;;;5014155;28;20521;-75
2023/06/28 02:31:16;;;;;;;4.50;3.17;;;;;;;;;;5014931;28;20225;-74
2023/06/28 02:34:20;;;;;;;6.33;3.07;;;;;;;;;;5014912;28;20181;-75
2023/06/28 02:37:25;;;;;;;7.07;3.10;;;;;;;;;;5014900;28;20217;-75
2023/06/28 02:40:28;;;;;;;3.77;2.90;;;;;;;;;;5013637;28;20209;-75
2023/06/28 02:43:33;;;;;;;4.37;3.07;;;;;;;;;;5024903;28;20182;-75
2023/06/28 02:46:37;;;;;;;2.77;2.50;;;;;;;;;;5013490;28;20181;-75
2023/06/28 02:49:41;;;;;;;5.07;2.60;;;;;;;;;;5013988;28;20185;-75
2023/06/28 02:52:45;;;;;;;3.33;2.70;;;;;;;;;;5002088;28;20212;-75
2023/06/28 02:55:50;;;;;;;2.97;2.67;;;;;;;;;;5002370;28;20181;-75
2023/06/28 02:58:58;;;;;;;3.47;2.47;;;;;;;;;;5014142;28;20201;-75
2023/06/28 03:02:04;;;;;;;3.33;2.77;;;;;;;;;;5024651;28;20221;-75
2023/06/28 03:05:08;;;;;;;4.13;2.80;;;;;;;;;;5024810;28;20177;-75
2023/06/28 03:08:12;;;;;;;4.00;2.77;;;;;;;;;;5024803;28;20193;-75
2023/06/28 03:11:16;;;;;;;3.20;2.50;;;;;;;;;;5024610;28;20224;-75
2023/06/28 03:14:21;;;;;;;4.27;2.77;;;;;;;;;;5024254;28;20194;-75
2023/06/28 03:17:25;;;;;;;7.87;2.90;;;;;;;;;;5024550;28;20209;-75
2023/06/28 03:20:30;;;;;;;4.83;3.07;;;;;;;;;;5024660;28;20200;-75
2023/06/28 03:23:34;;;;;;;4.17;2.90;;;;;;;;;;5013368;28;20182;-75
2023/06/28 03:26:38;;;;;;;4.90;2.77;;;;;;;;;;5013511;28;20518;-75
2023/06/28 03:29:42;;;;;;;5.20;2.70;;;;;;;;;;5013959;28;20174;-74
2023/06/28 03:32:47;;;;;;;8.17;2.97;;;;;;;;;;5013051;28;20221;-75
2023/06/28 03:35:51;;;;;;;4.17;2.70;;;;;;;;;;5013602;28;20624;-75
2023/06/28 03:38:55;;;;;;;3.33;2.97;;;;;;;;;;5013555;28;20217;-75
2023/06/28 03:41:59;;;;;;;3.77;3.13;;;;;;;;;;5012859;28;20217;-75
2023/06/28 03:45:04;;;;;;;4.50;2.90;;;;;;;;;;5013080;28;20182;-74
2023/06/28 03:48:09;;;;;;;3.57;3.27;;;;;;;;;;5013032;28;20177;-75
2023/06/28 03:51:13;;;;;;;4.83;3.27;;;;;;;;;;5013044;28;20213;-75
2023/06/28 03:54:18;;;;;;;5.30;3.17;;;;;;;;;;5024646;28;20181;-75
2023/06/28 03:57:22;;;;;;;4.27;3.20;;;;;;;;;;5024197;28;20201;-75
2023/06/28 04:00:25;;;;;;;4.50;3.20;;;;;;;;;;5012880;28;20186;-75
2023/06/28 04:03:30;;;;;;;4.43;3.10;;;;;;;;;;5013983;28;20182;-75
2023/06/28 04:06:34;;;;;;;3.63;3.13;;;;;;;;;;5013342;28;20177;-75
2023/06/28 04:09:38;;;;;;;7.43;3.80;;;;;;;;;;5012703;28;20169;-75
2023/06/28 04:12:42;;;;;;;4.43;3.20;;;;;;;;;;5013309;28;20221;-75
2023/06/28 04:15:46;;;;;;;6.80;3.77;;;;;;;;;;5012846;28;20181;-75
2023/06/28 04:18:52;;;;;;;4.87;3.53;;;;;;;;;;5012393;28;20224;-75
2023/06/28 04:21:56;;;;;;;5.73;3.60;;;;;;;;;;5012853;28;20217;-75
2023/06/28 04:25:00;;;;;;;5.23;3.20;;;;;;;;;;5013661;28;20181;-75
2023/06/28 04:28:04;;;;;;;3.27;2.90;;;;;;;;;;5016934;28;20533;-75
2023/06/28 04:31:09;;;;;;;6.07;3.40;;;;;;;;;;5027444;28;20181;-75
2023/06/28 04:34:13;;;;;;;7.77;3.17;;;;;;;;;;5017430;28;20513;-75
2023/06/28 04:37:18;;;;;;;3.17;2.50;;;;;;;;;;5016999;28;20185;-74
2023/06/28 04:40:22;;;;;;;3.83;2.63;;;;;;;;;;5017084;28;20525;-74
2023/06/28 04:43:26;;;;;;;2.80;2.40;;;;;;;;;;5015953;28;20668;-74
2023/06/28 04:46:32;;;;;;;4.13;2.07;;;;;;;;;;5028000;28;20198;-74
2023/06/28 04:49:37;;;;;;;2.70;2.17;;;;;;;;;;5016210;28;20169;-74
2023/06/28 04:52:41;;;;;;;5.00;2.23;;;;;;;;;;5015893;28;20217;-74
2023/06/28 04:55:46;;;;;;;2.67;1.80;;;;;;;;;;5016850;28;20177;-74
2023/06/28 04:58:50;;;;;;;2.63;2.27;;;;;;;;;;5016897;28;20205;-74
2023/06/28 05:01:55;;;;;;;2.87;1.97;;;;;;;;;;5015824;28;20217;-74
2023/06/28 05:04:59;;;;;;;2.60;1.90;;;;;;;;;;5027249;28;20181;-74
2023/06/28 05:08:03;;;;;;;3.03;2.00;;;;;;;;;;5016176;28;20181;-74
2023/06/28 05:11:07;;;;;;;2.30;1.80;;;;;;;;;;5015774;28;20189;-73
2023/06/28 05:14:11;;;;;;;2.80;2.40;;;;;;;;;;5026844;28;20185;-74
2023/06/28 05:17:15;;;;;;;5.33;2.07;;;;;;;;;;5004336;28;20177;-74
2023/06/28 05:20:19;;;;;;;6.57;2.70;;;;;;;;;;5016123;28;20185;-74
2023/06/28 05:23:27;;;;;;;2.80;2.50;;;;;;;;;;5016300;28;20181;-74
2023/06/28 05:26:31;;;;;;;5.70;3.13;;;;;;;;;;5016133;28;20173;-74
2023/06/28 05:29:35;;;;;;;4.37;3.17;;;;;;;;;;5015688;28;20189;-74
2023/06/28 05:32:39;;;;;;;3.30;2.90;;;;;;;;;;5014876;28;20684;-74
2023/06/28 05:35:43;;;;;;;3.33;2.90;;;;;;;;;;5015598;28;20656;-75
2023/06/28 05:38:49;;;;;;;6.53;2.80;;;;;;;;;;5003540;28;20217;-74
2023/06/28 05:41:53;;;;;;;7.10;3.20;;;;;;;;;;4992253;28;20221;-74
2023/06/28 05:44:57;;;;;;;3.63;2.60;;;;;;;;;;5015307;28;20189;-74
2023/06/28 05:48:02;;;;;;;3.60;3.17;;;;;;;;;;5015656;28;20182;-74
2023/06/28 05:51:12;;;;;;;3.40;2.90;;;;;;;;;;5015119;28;20185;-75
2023/06/28 05:54:16;;;;;;;3.67;2.57;;;;;;;;;;5015294;28;20182;-75
2023/06/28 05:57:20;;;;;;;4.57;2.93;;;;;;;;;;5014192;28;20197;-74
2023/06/28 06:00:24;;;;;;;4.47;2.50;;;;;;;;;;5015184;28;20174;-75
2023/06/28 06:03:28;;;;;;;2.87;2.53;;;;;;;;;;5002927;28;20541;-73
2023/06/28 06:06:32;;;;;;;4.17;3.20;;;;;;;;;;5014345;28;20525;-74
2023/06/28 06:09:36;;;;;;;3.90;2.60;;;;;;;;;;5015446;28;20174;-75
2023/06/28 06:12:40;;;;;;;4.73;2.63;;;;;;;;;;5015307;28;20213;-75
2023/06/28 06:15:44;;;;;;;5.43;3.03;;;;;;;;;;5014649;28;20664;-74
2023/06/28 06:18:48;;;;;;;4.50;2.67;;;;;;;;;;5025554;28;20225;-73
2023/06/28 06:21:53;;;;;;;4.57;2.77;;;;;;;;;;5014894;28;20221;-74
2023/06/28 06:24:57;;;;;;;4.37;2.97;;;;;;;;;;5013816;28;20186;-74
2023/06/28 06:28:01;;;;;;;5.53;2.77;;;;;;;;;;5014169;28;20186;-74
2023/06/28 06:31:05;;;;;;;5.23;2.57;;;;;;;;;;5014265;28;20640;-73
2023/06/28 06:34:10;;;;;;;4.63;2.53;;;;;;;;;;5014612;28;20185;-74
2023/06/28 06:37:14;;;;;;;4.50;2.97;;;;;;;;;;5014219;28;20178;-74
2023/06/28 06:40:18;;;;;;;4.70;2.67;;;;;;;;;;5014527;28;20181;-73
2023/06/28 06:43:22;;;;;;;2.77;2.43;;;;;;;;;;5014430;28;20185;-74
2023/06/28 06:46:26;;;;;;;4.03;2.93;;;;;;;;;;5014649;28;20181;-74
2023/06/28 06:49:31;;;;;;;5.07;3.13;;;;;;;;;;5013791;28;20193;-74
2023/06/28 06:52:37;;;;;;;4.60;2.37;;;;;;;;;;5013877;28;20225;-73
2023/06/28 06:55:41;;;;;;;4.60;3.07;;;;;;;;;;5014175;28;20186;-73
2023/06/28 06:58:45;;;;;;;5.00;2.90;;;;;;;;;;5001987;28;20621;-74
2023/06/28 07:01:50;;;;;;;4.43;2.90;;;;;;;;;;5014117;28;20695;-74
2023/06/28 07:04:54;;;;;;;6.37;3.07;;;;;;;;;;5014297;28;20181;-74
2023/06/28 07:07:59;;;;;;;5.97;2.97;;;;;;;;;;5013953;28;20185;-74
2023/06/28 07:11:03;;;;;;;5.03;3.00;;;;;;;;;;5013134;28;20182;-74
2023/06/28 07:14:07;;;;;;;5.13;2.77;;;;;;;;;;5013947;28;20632;-74
2023/06/28 07:17:11;;;;;;;3.10;2.33;;;;;;;;;;5013592;28;20173;-71
2023/06/28 07:20:15;;;;;;;5.60;2.90;;;;;;;;;;5013495;28;20680;-73
2023/06/28 07:23:20;;;;;;;4.00;2.93;;;;;;;;;;5013750;28;20182;-73
2023/06/28 07:26:24;;;;;;;4.57;2.30;;;;;;;;;;5013472;28;20182;-73
2023/06/28 07:29:28;;;;;;;4.40;3.07;;;;;;;;;;5013785;28;20173;-71
2023/06/28 07:32:32;;;;;;;6.73;3.10;;;;;;;;;;5001427;28;20695;-72
2023/06/28 07:35:37;;;;;;;3.30;2.50;;;;;;;;;;5012895;28;20181;-73
2023/06/28 07:38:41;;;;;;;7.80;2.57;;;;;;;;;;5013267;28;20209;-74
2023/06/28 07:41:45;;;;;;;7.50;3.10;;;;;;;;;;5012966;28;20217;-74
2023/06/28 07:44:49;;;;;;;4.47;2.30;;;;;;;;;;5023974;28;20533;-74
2023/06/28 07:47:54;;;;;;;4.13;2.80;;;;;;;;;;5012803;28;20178;-72
2023/06/28 07:50:58;;;;;;;3.20;2.30;;;;;;;;;;5013665;28;20170;-73
2023/06/28 07:54:02;;;;;;;4.60;2.70;;;;;;;;;;5013267;28;20181;-72
2023/06/28 07:57:09;;;;;;;5.80;2.90;;;;;;;;;;5024324;28;20510;-72
2023/06/28 08:00:13;;;;;;;3.57;2.50;;;;;;;;;;5014178;28;20202;-74
2023/06/28 08:03:19;;;;;;;2.80;2.07;;;;;;;;;;5016263;28;20656;-73
2023/06/28 08:06:23;;;;;;;8.23;2.50;;;;;;;;;;5017192;28;20197;-72
2023/06/28 08:09:27;;;;;;;7.40;3.10;;;;;;;;;;5017219;28;20173;-73
2023/06/28 08:12:31;;;;;;;7.13;3.07;;;;;;;;;;5017236;28;20221;-72
2023/06/28 08:15:38;;;;;;;5.20;2.40;;;;;;;;;;5027577;28;20177;-72
2023/06/28 08:18:42;;;;;;;5.30;2.67;;;;;;;;;;5030901;22;20699;-72
2023/06/28 08:21:46;;;;;;;4.73;2.53;;;;;;;;;;5016799;28;20221;-72
2023/06/28 08:24:51;;;;;;;6.33;2.77;;;;;;;;;;5017156;28;20186;-72
2023/06/28 08:27:55;;;;;;;3.63;2.33;;;;;;;;;;5015852;28;20179;-72
2023/06/28 08:30:59;;;;;;;5.80;2.10;;;;;;;;;;5004480;28;20174;-72
2023/06/28 08:34:03;;;;;;;4.30;2.27;;;;;;;;;;5016804;28;20624;-72
2023/06/28 08:37:08;;;;;;;5.70;2.00;;;;;;;;;;5015968;28;20180;-72
2023/06/28 08:40:12;;;;;;;3.33;1.80;;;;;;;;;;5016570;28;20224;-72
2023/06/28 08:43:17;;;;;;;4.83;1.70;;;;;;;;;;5016341;28;20274;-72
2023/06/28 08:46:22;;;;;;;3.87;2.03;;;;;;;;;;5016257;28;20201;-72
2023/06/28 08:49:27;;;;;;;3.60;1.93;;;;;;;;;;5016208;28;20656;-72
2023/06/28 08:52:33;;;;;;;3.27;1.80;;;;;;;;;;5015292;28;20225;-72
2023/06/28 08:55:37;;;;;;;2.87;1.97;;;;;;;;;;5015288;28;20662;-72
2023/06/28 08:58:42;;;;;;;4.10;1.87;;;;;;;;;;5016517;28;20183;-72
2023/06/28 09:01:47;;;;;;;4.57;2.07;;;;;;;;;;5015944;28;20219;-72
2023/06/28 09:04:51;;;;;;;6.05;2.20;;;;;;;;;;5016534;28;20178;-72
2023/06/28 09:07:56;;;;;;;9.38;2.45;;;;;;;;;;5016120;28;20180;-72
2023/06/28 09:11:01;;;;;;;10.25;3.20;;;;;;;;;;5015780;28;20184;-72
2023/06/28 09:14:05;;;;;;;8.05;2.30;;;;;;;;;;5014940;28;20198;-72
2023/06/28 09:17:10;;;;;;;2.38;2.15;;;;;;;;;;5015647;28;20201;-73
2023/06/28 09:20:18;;;;;;;6.07;2.28;;;;;;;;;;5015534;28;20223;-72
2023/06/28 09:23:30;;;;;;;4.70;2.05;;;;;;;;;;5015604;28;20635;-72
2023/06/28 09:26:34;;;;;;;2.47;2.10;;;;;;;;;;5015237;28;20181;-72
2023/06/28 09:29:38;;;;;;;4.55;2.00;;;;;;;;;;5014990;28;20175;-73
2023/06/28 09:32:45;;;;;;;4.55;2.00;;;;;;;;;;5015670;28;20585;-72
2023/06/28 09:35:56;;;;;;;12.68;3.08;;;;;;;;;;5015871;28;20659;-72
2023/06/28 09:39:03;;;;;;;4.68;1.88;;;;;;;;;;5014930;28;20193;-72
2023/06/28 09:42:07;;;;;;;4.93;2.20;;;;;;;;;;5014543;28;20217;-72
2023/06/28 09:45:35;;;;;;;5.10;2.28;;;;;;;;;;5015432;28;20188;-72
2023/06/28 09:48:48;;;;;;;3.55;2.05;;;;;;;;;;5015371;28;20184;-72
2023/06/28 09:52:06;;;;;;;3.92;1.90;;;;;;;;;;5014960;28;20224;-72
2023/06/28 09:55:11;;;;;;;3.95;2.03;;;;;;;;;;5015269;28;20623;-72
2023/06/28 09:58:17;;;;;;;11.25;2.80;;;;;;;;;;5014648;28;20183;-72
2023/06/28 10:01:23;;;;;;;10.98;3.03;;;;;;;;;;5014871;28;20215;-72
2023/06/28 10:04:30;;;;;;;4.28;2.22;;;;;;;;;;5015124;28;20184;-72
2023/06/28 10:07:35;;;;;;;5.05;2.13;;;;;;;;;;5002728;28;20185;-72
2023/06/28 10:10:40;;;;;;;4.38;2.17;;;;;;;;;;5003243;28;20179;-72
2023/06/28 10:13:48;;;;;;;3.63;2.13;;;;;;;;;;5015449;28;20177;-72
2023/06/28 10:16:55;;;;;;;11.13;2.38;;;;;;;;;;5014510;28;20223;-72
2023/06/28 10:20:00;;;;;;;8.13;2.45;;;;;;;;;;5013829;28;20224;-72
2023/06/28 10:23:06;;;;;;;3.80;2.33;;;;;;;;;;5013854;28;20685;-72
2023/06/28 10:26:12;;;;;;;3.30;1.95;;;;;;;;;;5014414;28;20174;-72
2023/06/28 10:29:19;;;;;;;6.38;1.88;;;;;;;;;;5014862;28;20192;-72
2023/06/28 10:32:24;;;;;;;3.72;1.98;;;;;;;;;;5014280;28;20221;-72
2023/06/28 10:35:28;;;;;;;5.15;2.35;;;;;;;;;;5014489;28;20196;-72
2023/06/28 10:38:33;;;;;;;7.03;2.67;;;;;;;;;;5014711;28;20192;-72
2023/06/28 10:41:37;;;;;;;7.40;2.10;;;;;;;;;;5014337;28;20712;-71
2023/06/28 10:44:56;;;;;;;4.20;2.38;;;;;;;;;;5014379;28;20182;-71
2023/06/28 10:48:00;;;;;;;5.32;2.20;;;;;;;;;;5013433;28;20630;-71
2023/06/28 10:51:05;;;;;;;6.78;2.30;;;;;;;;;;5014039;28;20178;-72
2023/06/28 10:54:14;;;;;;;3.08;1.88;;;;;;;;;;5013940;28;20521;-72
2023/06/28 10:57:19;;;;;;;3.63;2.22;;;;;;;;;;5012964;28;20187;-72
2023/06/28 11:00:42;;;;;;;5.75;2.45;;;;;;;;;;5012776;28;20232;-72
2023/06/28 11:03:46;;;;;;;4.90;2.55;;;;;;;;;;5013989;28;20189;-72
2023/06/28 11:07:15;;;;;;;5.22;2.08;;;;;;;;;;5013625;28;20185;-72
2023/06/28 11:10:19;;;;;;;2.95;2.00;;;;;;;;;;5001744;28;20182;-72
2023/06/28 11:13:32;;;;;;;3.80;2.00;;;;;;;;;;5013853;28;20181;-72
2023/06/28 11:16:36;;;;;;;3.60;2.08;;;;;;;;;;5013728;28;20188;-72
2023/06/28 11:19:44;;;;;;;4.45;1.83;;;;;;;;;;5013392;28;20226;-72
2023/06/28 11:22:53;;;;;;;5.25;1.90;;;;;;;;;;5001567;28;20688;-72
2023/06/28 11:26:00;;;;;;;3.67;1.90;;;;;;;;;;5013708;28;20187;-72
2023/06/28 11:29:20;;;;;;;5.90;2.00;;;;;;;;;;5013286;28;20665;-72
2023/06/28 11:32:26;;;;;;;4.28;1.73;;;;;;;;;;5013809;28;20220;-72
2023/06/28 11:35:31;;;;;;;2.53;1.67;;;;;;;;;;5013410;28;20193;-72
2023/06/28 11:38:36;;;;;;;5.15;2.00;;;;;;;;;;5012935;28;20182;-71
2023/06/28 11:41:41;;;;;;;3.10;1.70;;;;;;;;;;5012720;28;20231;-71
2023/06/28 11:44:49;;;;;;;2.50;1.50;;;;;;;;;;5012824;28;20185;-71
2023/06/28 11:47:54;;;;;;;3.33;1.90;;;;;;;;;;5013653;28;20184;-72
2023/06/28 11:51:04;;;;;;;3.53;1.60;;;;;;;;;;5013209;28;20191;-72
2023/06/28 11:54:08;;;;;;;4.72;1.70;;;;;;;;;;5012980;28;20182;-73
2023/06/28 11:57:13;;;;;;;2.33;1.58;;;;;;;;;;5013149;28;20180;-72
2023/06/28 12:00:18;;;;;;;2.60;1.45;;;;;;;;;;4990014;28;20224;-73
2023/06/28 12:03:33;;;;;;;3.47;1.55;;;;;;;;;;5012725;28;20344;-73
2023/06/28 12:06:37;;;;;;;2.33;1.73;;;;;;;;;;5013190;28;20189;-71
2023/06/28 12:09:41;;;;;;;7.43;2.22;;;;;;;;;;5013232;28;20189;-71
2023/06/28 12:12:45;;;;;;;2.75;1.50;;;;;;;;;;5013581;28;20220;-73
2023/06/28 12:15:50;;;;;;;2.60;1.42;;;;;;;;;;5012301;28;20179;-72
2023/06/28 12:18:58;;;;;;;6.38;1.67;;;;;;;;;;5013167;28;20209;-73
2023/06/28 12:22:04;;;;;;;5.20;1.85;;;;;;;;;;5013223;28;20576;-73
2023/06/28 12:25:09;;;;;;;2.45;1.42;;;;;;;;;;5013240;28;20178;-71
2023/06/28 12:28:14;;;;;;;3.35;1.55;;;;;;;;;;5013479;28;20190;-73
2023/06/28 12:31:18;;;;;;;3.55;1.70;;;;;;;;;;5001187;28;20209;-73
2023/06/28 12:34:24;;;;;;;3.35;1.85;;;;;;;;;;5013104;28;20776;-73
2023/06/28 12:37:35;;;;;;;4.72;1.80;;;;;;;;;;5012737;28;20201;-73
2023/06/28 12:40:39;;;;;;;6.80;1.63;;;;;;;;;;5013253;28;20663;-73
2023/06/28 12:43:54;;;;;;;3.50;1.90;;;;;;;;;;5013049;28;20184;-73
2023/06/28 12:46:58;;;;;;;2.38;1.50;;;;;;;;;;5014619;28;20628;-73
2023/06/28 12:50:03;;;;;;;4.93;1.77;;;;;;;;;;5016262;28;20181;-73
2023/06/28 12:53:07;;;;;;;2.92;1.55;;;;;;;;;;5016165;28;20220;-73
2023/06/28 12:56:12;;;;;;;5.28;1.55;;;;;;;;;;5004114;28;20185;-73
2023/06/28 12:59:16;;;;;;;4.25;1.70;;;;;;;;;;5016245;28;20175;-73
2023/06/28 13:02:20;;;;;;;3.60;1.58;;;;;;;;;;5016231;28;20212;-73
2023/06/28 13:05:24;;;;;;;6.15;1.65;;;;;;;;;;5015957;28;20176;-73
2023/06/28 13:08:29;;;;;;;5.55;1.77;;;;;;;;;;5015980;28;20172;-73
2023/06/28 13:11:33;;;;;;;3.67;1.70;;;;;;;;;;5016053;28;20710;-73
2023/06/28 13:14:38;;;;;;;2.65;1.50;;;;;;;;;;5016005;28;20184;-73
2023/06/28 13:17:42;;;;;;;1.50;1.20;;;;;;;;;;5015797;28;20528;-73
2023/06/28 13:20:45;;;;;;;4.20;1.60;;;;;;;;;;5015811;28;20211;-72
2023/06/28 13:23:50;;;;;;;14.63;2.20;;;;;;;;;;5014822;28;20230;-73
2023/06/28 13:26:56;;;;;;;7.97;2.03;;;;;;;;;;5015541;28;20177;-73
2023/06/28 13:30:00;;;;;;;2.65;1.45;;;;;;;;;;5015556;28;20178;-73
2023/06/28 13:33:04;;;;;;;3.72;1.70;;;;;;;;;;5014595;28;20213;-71
2023/06/28 13:36:08;;;;;;;5.68;1.80;;;;;;;;;;5015362;28;20523;-71
2023/06/28 13:39:12;;;;;;;3.15;1.50;;;;;;;;;;5015600;28;20174;-71
2023/06/28 13:42:16;;;;;;;4.00;1.75;;;;;;;;;;5015385;28;20700;-71
2023/06/28 13:45:20;;;;;;;3.28;1.65;;;;;;;;;;5015344;28;20182;-71
2023/06/28 13:48:24;;;;;;;3.85;1.48;;;;;;;;;;5015162;28;20190;-71
2023/06/28 13:51:28;;;;;;;3.28;1.63;;;;;;;;;;5014978;28;20692;-71
2023/06/28 13:54:32;;;;;;;3.63;1.42;;;;;;;;;;5015322;28;20182;-72
2023/06/28 13:57:36;;;;;;;2.78;1.23;;;;;;;;;;5014938;28;20178;-71
2023/06/28 14:00:40;;;;;;;3.65;1.60;;;;;;;;;;5015140;28;20213;-71
2023/06/28 14:03:44;;;;;;;2.55;1.23;;;;;;;;;;5015436;28;20182;-71
2023/06/28 14:06:49;;;;;;;2.05;1.27;;;;;;;;;;5015207;28;20186;-71
2023/06/28 14:09:53;;;;;;;1.38;1.23;;;;;;;;;;5015019;28;20182;-73
2023/06/28 14:12:57;;;;;;;3.55;1.60;;;;;;;;;;5014102;28;20213;-73
2023/06/28 14:16:01;;;;;;;3.42;1.65;;;;;;;;;;5003108;28;20184;-71
2023/06/28 14:19:05;;;;;;;5.15;1.50;;;;;;;;;;5030107;22;20237;-71
2023/06/28 14:22:10;;;;;;;4.00;1.25;;;;;;;;;;5004650;28;20221;-72
2023/06/28 14:25:14;;;;;;;2.42;1.50;;;;;;;;;;5016971;28;20191;-72
2023/06/28 14:28:18;;;;;;;2.45;1.30;;;;;;;;;;5027644;28;20184;-72
2023/06/28 14:31:24;;;;;;;2.03;1.30;;;;;;;;;;5016627;28;20219;-73
2023/06/28 14:34:28;;;;;;;2.05;1.35;;;;;;;;;;5016337;28;20206;-73
2023/06/28 14:37:32;;;;;;;2.90;1.75;;;;;;;;;;5015147;28;20191;-73
2023/06/28 14:40:36;;;;;;;2.97;1.20;;;;;;;;;;5015530;28;20195;-73
2023/06/28 14:43:41;;;;;;;1.98;1.38;;;;;;;;;;5015361;28;20202;-73
2023/06/28 14:46:45;;;;;;;1.90;1.30;;;;;;;;;;5015089;28;20204;-73
2023/06/28 14:49:49;;;;;;;2.80;1.30;;;;;;;;;;5015056;28;20525;-73
2023/06/28 14:52:53;;;;;;;2.60;1.13;;;;;;;;;;5014727;28;20219;-72
2023/06/28 14:55:57;;;;;;;4.70;1.30;;;;;;;;;;5014628;28;20184;-73
2023/06/28 14:59:01;;;;;;;2.70;1.10;;;;;;;;;;5015015;28;20186;-73
2023/06/28 15:02:05;;;;;;;5.93;1.48;;;;;;;;;;5014501;28;20228;-73
2023/06/28 15:05:09;;;;;;;9.20;1.80;;;;;;;;;;5014001;28;20515;-73
2023/06/28 15:08:13;;;;;;;1.98;1.35;;;;;;;;;;5014236;28;20510;-73
2023/06/28 15:11:17;;;;;;;3.25;1.10;;;;;;;;;;5014291;28;20210;-73
2023/06/28 15:14:21;;;;;;;3.97;1.63;;;;;;;;;;5014074;28;20185;-73
2023/06/28 15:17:25;;;;;;;5.00;1.33;;;;;;;;;;5014326;28;20182;-73
2023/06/28 15:20:29;;;;;;;5.57;1.58;;;;;;;;;;5013097;28;20208;-73
2023/06/28 15:23:34;;;;;;;2.47;1.10;;;;;;;;;;5014098;28;20188;-72
2023/06/28 15:26:38;;;;;;;4.88;1.20;;;;;;;;;;5013268;28;20177;-73
2023/06/28 15:29:41;;;;;;;2.08;1.20;;;;;;;;;;5014425;28;20550;-73
2023/06/28 15:32:46;;;;;;;4.03;1.40;;;;;;;;;;5013995;28;20699;-74
2023/06/28 15:35:50;;;;;;;4.13;1.20;;;;;;;;;;5013919;28;20522;-73
2023/06/28 15:38:54;;;;;;;3.70;1.60;;;;;;;;;;5013122;28;20181;-73
2023/06/28 15:41:58;;;;;;;2.30;1.15;;;;;;;;;;5013353;28;20233;-73
2023/06/28 15:45:02;;;;;;;2.63;1.40;;;;;;;;;;5013660;28;20179;-73
2023/06/28 15:48:07;;;;;;;5.60;1.60;;;;;;;;;;5014388;28;20186;-73
2023/06/28 15:51:12;;;;;;;2.03;1.30;;;;;;;;;;5013867;28;20177;-72
2023/06/28 15:54:16;;;;;;;2.50;1.40;;;;;;;;;;5013756;28;20191;-73
2023/06/28 15:57:20;;;;;;;3.30;1.45;;;;;;;;;;5013705;28;20199;-73
2023/06/28 16:00:24;;;;;;;3.17;1.13;;;;;;;;;;5013450;28;20661;-73
2023/06/28 16:03:28;;;;;;;1.77;1.20;;;;;;;;;;5024173;28;20176;-74
2023/06/28 16:06:33;;;;;;;2.95;1.55;;;;;;;;;;5013718;28;20183;-73
2023/06/28 16:09:37;;;;;;;3.50;1.50;;;;;;;;;;5013828;28;20620;-73
2023/06/28 16:12:40;;;;;;;4.93;1.33;;;;;;;;;;5014216;28;20213;-73
2023/06/28 16:15:44;;;;;;;2.67;1.67;;;;;;;;;;5012428;28;20206;-74
2023/06/28 16:18:49;;;;;;;1.70;1.38;;;;;;;;;;5013677;28;20210;-75
2023/06/28 16:21:53;;;;;;;6.65;4.70;;;;;;;;;;5004588;28;20224;-74
2023/06/28 16:24:57;;;;;;;4.30;2.00;;;;;;;;;;5016916;28;20256;-73
2023/06/28 16:28:01;;;;;;;4.03;2.13;;;;;;;;;;5017219;28;20580;-74
2023/06/28 16:31:05;;;;;;;1.87;1.30;;;;;;;;;;5016685;28;20192;-74
2023/06/28 16:34:09;;;;;;;3.10;1.60;;;;;;;;;;5016360;28;20181;-74
2023/06/28 16:37:13;;;;;;;3.23;1.37;;;;;;;;;;5016896;28;20181;-74
2023/06/28 16:40:17;;;;;;;2.07;1.40;;;;;;;;;;5017100;28;20179;-75
2023/06/28 16:43:21;;;;;;;1.50;1.40;;;;;;;;;;5005259;28;20183;-74
2023/06/28 16:46:26;;;;;;;3.40;1.47;;;;;;;;;;5016863;28;20178;-74
2023/06/28 16:49:30;;;;;;;3.33;1.50;;;;;;;;;;5016123;28;20210;-74
2023/06/28 16:52:34;;;;;;;4.10;1.77;;;;;;;;;;5016684;28;20218;-74
2023/06/28 16:55:38;;;;;;;3.83;1.47;;;;;;;;;;5016255;28;20182;-74
2023/06/28 16:58:42;;;;;;;2.87;1.40;;;;;;;;;;5016460;28;20627;-73
2023/06/28 17:01:46;;;;;;;2.60;1.33;;;;;;;;;;5016471;28;20229;-73
2023/06/28 17:04:50;;;;;;;3.47;1.60;;;;;;;;;;5016161;28;20181;-73
2023/06/28 17:07:54;;;;;;;3.50;1.50;;;;;;;;;;5016818;28;20298;-73
2023/06/28 17:10:59;;;;;;;3.70;1.43;;;;;;;;;;5015354;28;20180;-73
2023/06/28 17:14:03;;;;;;;3.30;1.80;;;;;;;;;;5016348;28;20181;-73
2023/06/28 17:17:07;;;;;;;2.40;1.50;;;;;;;;;;5016435;28;20182;-74
2023/06/28 17:20:11;;;;;;;2.73;1.40;;;;;;;;;;5016110;28;20671;-73
2023/06/28 17:23:17;;;;;;;2.40;1.30;;;;;;;;;;5026387;28;20233;-73
2023/06/28 17:26:21;;;;;;;3.37;1.40;;;;;;;;;;5015640;28;20184;-73
2023/06/28 17:29:25;;;;;;;3.90;1.90;;;;;;;;;;5015843;28;20187;-73
2023/06/28 17:32:31;;;;;;;4.70;1.60;;;;;;;;;;5014493;28;20686;-73
2023/06/28 17:35:35;;;;;;;2.67;1.43;;;;;;;;;;5015971;28;20188;-73
2023/06/28 17:38:39;;;;;;;3.30;1.40;;;;;;;;;;5004270;28;20179;-73
2023/06/28 17:41:44;;;;;;;2.00;1.40;;;;;;;;;;5014694;28;20579;-72
2023/06/28 17:44:48;;;;;;;2.63;1.60;;;;;;;;;;5003654;28;20176;-73
2023/06/28 17:47:53;;;;;;;2.73;1.80;;;;;;;;;;5015759;28;20183;-72
2023/06/28 17:50:57;;;;;;;2.30;1.60;;;;;;;;;;5015567;28;20180;-72
2023/06/28 17:54:02;;;;;;;2.77;1.53;;;;;;;;;;5015597;28;20179;-72
2023/06/28 17:57:06;;;;;;;2.57;1.40;;;;;;;;;;5015609;28;20187;-72
2023/06/28 18:00:10;;;;;;;4.53;1.80;;;;;;;;;;5025889;28;20206;-73
2023/06/28 18:03:19;;;;;;;4.57;1.60;;;;;;;;;;5015283;28;20574;-73
2023/06/28 18:06:24;;;;;;;4.97;1.50;;;;;;;;;;5015436;28;20181;-73
2023/06/28 18:09:28;;;;;;;4.63;1.97;;;;;;;;;;5014716;28;20185;-72
2023/06/28 18:12:32;;;;;;;3.97;1.50;;;;;;;;;;5015343;28;20213;-73
2023/06/28 18:15:36;;;;;;;4.83;1.50;;;;;;;;;;5015163;28;20174;-72
2023/06/28 18:18:40;;;;;;;2.63;1.10;;;;;;;;;;5015015;28;20541;-74
2023/06/28 18:21:45;;;;;;;3.37;1.17;;;;;;;;;;5013943;28;20225;-73
2023/06/28 18:24:49;;;;;;;2.70;1.30;;;;;;;;;;5014820;28;20208;-73
2023/06/28 18:27:54;;;;;;;3.10;1.33;;;;;;;;;;5015037;28;20185;-73